Cheswold, Delaware
Current Conditions -  °F | °C
As of 12:58 PM on Thursday 29 Jan 2015 (Local Time) from KDOV Reporting Station
Few Clouds Few Clouds  
Wind Chill: 27°   Ceiling: Unl
Heat Index: 33°   Visibility: 10mi
Dew Point: 18°   Wind: 6mph
Humidity: 55%   Direction: 100°E
Pressure: 30.23"   Gusts: NA
Location:  39.22°N, 75.59°W
Report Text: KDOV 291758Z AUTO 10005KT 10SM FEW160 00/M08 A3023 RMK AO2 SLP240 T00031078 10003 21072 57030 VISNO RWY19 CHINO RWY19 $
Loading
Personal Weather Stations






























Interactive Weather Map New forecast layout! Learn more

10-Day Weather Forecast

Advertisements
Track Severe Weather on mobile